createdAt,value
2019-05-21T00:00:27.336Z,22.17
2019-05-21T00:03:04.727Z,22.98
2019-05-21T00:05:44.368Z,25.62
2019-05-21T00:08:21.742Z,29.32
2019-05-21T00:10:59.052Z,26.65
2019-05-21T00:13:36.447Z,25.65
2019-05-21T00:16:15.442Z,27.07
2019-05-21T00:18:53.201Z,25.10
2019-05-21T00:21:30.552Z,21.97
2019-05-21T00:24:07.973Z,22.67
2019-05-21T00:26:45.479Z,22.67
2019-05-21T00:29:58.718Z,24.80
2019-05-21T00:33:11.723Z,27.62
2019-05-21T00:36:27.578Z,22.05
2019-05-21T00:39:41.106Z,28.47
2019-05-21T00:42:29.104Z,21.40
2019-05-21T00:45:09.184Z,25.08
2019-05-21T00:47:48.172Z,27.32
2019-05-21T00:50:25.519Z,22.40
2019-05-21T00:53:02.820Z,24.23
2019-05-21T00:55:40.159Z,22.95
2019-05-21T00:58:17.588Z,23.95
2019-05-21T01:00:54.791Z,20.23
2019-05-21T01:03:32.262Z,20.80
2019-05-21T01:06:09.820Z,21.15
2019-05-21T01:08:47.042Z,27.15
2019-05-21T01:11:24.287Z,20.72
2019-05-21T01:14:01.397Z,23.40
2019-05-21T01:16:38.811Z,21.20
2019-05-21T01:19:16.302Z,20.72
2019-05-21T01:21:53.642Z,24.72
2019-05-21T01:24:30.818Z,22.30
2019-05-21T01:27:08.152Z,22.70
2019-05-21T01:29:45.459Z,22.10
2019-05-21T01:32:23.136Z,21.02
2019-05-21T01:35:15.722Z,22.52
2019-05-21T01:37:39.426Z,22.80
2019-05-21T01:40:17.556Z,25.35
2019-05-21T01:43:06.823Z,23.73
2019-05-21T01:45:44.098Z,24.67
2019-05-21T01:48:21.695Z,23.40
2019-05-21T01:50:59.502Z,23.98
2019-05-21T01:53:37.880Z,23.38
2019-05-21T01:56:15.632Z,26.33
2019-05-21T01:58:52.841Z,23.83
2019-05-21T02:01:31.752Z,23.62
2019-05-21T02:04:09.921Z,24.75
2019-05-21T02:06:49.385Z,23.20
2019-05-21T02:09:27.182Z,25.80
2019-05-21T02:12:04.608Z,23.65
2019-05-21T02:14:42.045Z,27.32
2019-05-21T02:17:22.140Z,27.45
2019-05-21T02:20:02.170Z,27.13
2019-05-21T02:22:39.977Z,26.62
2019-05-21T02:25:18.713Z,25.45
2019-05-21T02:27:56.098Z,27.42
2019-05-21T02:30:33.541Z,26.15
2019-05-21T02:33:10.798Z,25.88
2019-05-21T02:35:54.058Z,27.45
2019-05-21T02:38:27.299Z,26.85
2019-05-21T02:41:04.705Z,35.63
2019-05-21T02:43:42.544Z,30.05
2019-05-21T02:46:19.733Z,32.35
2019-05-21T02:48:57.475Z,30.95
2019-05-21T02:51:34.937Z,30.17
2019-05-21T02:54:12.391Z,35.95
2019-05-21T02:56:50.293Z,34.30
2019-05-21T02:59:28.041Z,38.95
2019-05-21T03:02:12.573Z,35.23
2019-05-21T03:04:50.384Z,32.33
2019-05-21T03:07:27.575Z,35.78
2019-05-21T03:10:05.507Z,33.88
2019-05-21T03:12:43.863Z,38.90
2019-05-21T03:15:21.752Z,34.23
2019-05-21T03:18:00.015Z,38.70
2019-05-21T03:20:37.336Z,34.48
2019-05-21T03:23:15.045Z,34.80
2019-05-21T03:25:54.075Z,38.13
2019-05-21T03:28:31.436Z,33.50
2019-05-21T03:31:08.933Z,35.48
2019-05-21T03:33:46.378Z,34.08
2019-05-21T03:36:33.298Z,40.78
2019-05-21T03:39:02.640Z,37.33
2019-05-21T03:41:40.029Z,38.50
2019-05-21T03:44:17.222Z,37.53
2019-05-21T03:46:55.232Z,35.52
2019-05-21T03:49:33.464Z,37.48
2019-05-21T03:52:10.821Z,36.83
2019-05-21T03:54:48.621Z,36.23
2019-05-21T03:57:26.445Z,34.50
2019-05-21T04:00:15.611Z,31.10
2019-05-21T04:02:52.826Z,32.35
2019-05-21T04:05:30.466Z,32.88
2019-05-21T04:08:07.695Z,30.02
2019-05-21T04:10:45.148Z,30.15
2019-05-21T04:13:22.466Z,32.10
2019-05-21T04:16:25.418Z,29.75
2019-05-21T04:19:06.199Z,30.02
2019-05-21T04:24:19.711Z,30.35
2019-05-21T04:26:57.324Z,28.47
2019-05-21T04:29:34.625Z,31.25
2019-05-21T04:32:12.149Z,37.03
2019-05-21T04:34:49.650Z,35.52
2019-05-21T04:37:27.055Z,38.90
2019-05-21T04:40:04.908Z,39.67
2019-05-21T04:42:42.456Z,37.78
2019-05-21T04:45:19.698Z,36.30
2019-05-21T04:47:57.009Z,41.58
2019-05-21T04:50:34.114Z,35.43
2019-05-21T04:53:11.288Z,32.98
2019-05-21T04:55:48.605Z,31.70
2019-05-21T04:58:25.810Z,35.55
2019-05-21T05:01:03.153Z,36.05
2019-05-21T05:03:40.670Z,32.55
2019-05-21T05:06:18.377Z,45.20
2019-05-21T05:08:55.782Z,36.95
2019-05-21T05:11:33.181Z,39.60
2019-05-21T05:14:10.326Z,33.45
2019-05-21T05:16:48.368Z,35.70
2019-05-21T05:19:25.962Z,34.30
2019-05-21T05:22:03.777Z,34.30
2019-05-21T05:24:41.071Z,34.03
2019-05-21T05:27:18.434Z,31.05
2019-05-21T05:29:55.837Z,30.85
2019-05-21T05:32:33.183Z,29.75
2019-05-21T05:35:10.803Z,32.53
2019-05-21T05:37:49.048Z,31.93
2019-05-21T05:40:26.605Z,32.88
2019-05-21T05:43:04.068Z,33.18
2019-05-21T05:45:42.425Z,36.25
2019-05-21T05:48:19.897Z,32.88
2019-05-21T05:50:59.009Z,31.75
2019-05-21T05:53:55.235Z,42.62
2019-05-21T05:56:32.437Z,42.17
2019-05-21T05:59:14.108Z,34.55
2019-05-21T06:01:49.689Z,34.53
2019-05-21T06:04:30.410Z,33.25
2019-05-21T06:07:06.518Z,35.38
2019-05-21T06:09:44.888Z,32.15
2019-05-21T06:12:34.577Z,33.80
2019-05-21T06:15:12.538Z,31.97
2019-05-21T06:17:50.016Z,33.15
2019-05-21T06:20:27.770Z,31.52
2019-05-21T06:23:05.609Z,34.63
2019-05-21T06:25:43.124Z,33.10
2019-05-21T06:28:20.536Z,32.85
2019-05-21T06:30:58.057Z,34.53
2019-05-21T06:33:35.779Z,35.20
2019-05-21T06:36:13.719Z,35.78
2019-05-21T06:38:51.508Z,38.70
2019-05-21T06:41:29.017Z,40.17
2019-05-21T06:44:06.311Z,42.62
2019-05-21T06:46:43.744Z,46.45
2019-05-21T06:49:22.072Z,43.73
2019-05-21T06:51:59.501Z,48.63
2019-05-21T06:54:37.507Z,46.18
2019-05-21T06:57:15.257Z,45.08
2019-05-21T06:59:52.503Z,44.90
2019-05-21T07:02:29.836Z,46.63
2019-05-21T07:05:08.656Z,46.37
2019-05-21T07:07:47.164Z,48.40
2019-05-21T07:10:24.550Z,46.30
2019-05-21T07:13:01.815Z,41.58
2019-05-21T07:15:39.667Z,42.27
2019-05-21T07:18:16.925Z,41.92
2019-05-21T07:20:54.343Z,65.57
2019-05-21T07:23:31.659Z,37.75
2019-05-21T07:26:09.445Z,39.00
2019-05-21T07:28:46.788Z,36.95
2019-05-21T07:31:24.621Z,41.45
2019-05-21T07:34:02.858Z,33.67
2019-05-21T07:36:40.292Z,31.97
2019-05-21T07:39:17.881Z,30.05
2019-05-21T07:41:55.875Z,30.95
2019-05-21T07:44:33.534Z,31.42
2019-05-21T07:47:10.829Z,29.95
2019-05-21T07:49:48.552Z,28.70
2019-05-21T07:52:25.835Z,30.17
2019-05-21T07:55:03.319Z,28.27
2019-05-21T07:57:41.975Z,25.75
2019-05-21T08:00:20.111Z,24.23
2019-05-21T08:02:57.395Z,23.57
2019-05-21T08:05:35.605Z,24.82
2019-05-21T08:08:14.130Z,23.90
2019-05-21T08:10:51.589Z,24.85
2019-05-21T08:13:28.909Z,24.90
2019-05-21T08:16:06.417Z,34.98
2019-05-21T08:18:43.841Z,25.00
2019-05-21T08:21:21.364Z,24.77
2019-05-21T08:23:58.980Z,27.10
2019-05-21T08:26:36.823Z,26.45
2019-05-21T08:29:14.064Z,29.02
2019-05-21T08:31:51.417Z,22.90
2019-05-21T08:34:28.852Z,23.32
2019-05-21T08:37:06.337Z,22.75
2019-05-21T08:39:43.700Z,25.12
2019-05-21T08:42:20.943Z,24.05
2019-05-21T08:44:58.357Z,22.67
2019-05-21T08:47:35.678Z,22.48
2019-05-21T08:50:13.965Z,22.48
2019-05-21T08:52:51.345Z,22.93
2019-05-21T08:55:28.789Z,23.87
2019-05-21T08:58:07.777Z,22.73
2019-05-21T09:00:45.515Z,22.65
2019-05-21T09:03:22.854Z,20.30
2019-05-21T09:06:01.232Z,18.98
2019-05-21T09:08:38.667Z,18.00
2019-05-21T09:11:15.880Z,19.67
2019-05-21T09:13:53.492Z,12.98
2019-05-21T09:16:31.322Z,12.98
2019-05-21T09:19:08.655Z,18.05
2019-05-21T09:21:46.358Z,10.80
2019-05-21T09:24:23.693Z,7.03
2019-05-21T09:27:01.168Z,9.20
2019-05-21T09:29:50.491Z,9.35
2019-05-21T09:32:27.727Z,12.55
2019-05-21T09:35:05.909Z,11.85
2019-05-21T09:37:43.620Z,18.25
2019-05-21T09:40:23.684Z,15.88
2019-05-21T09:43:01.299Z,22.35
2019-05-21T09:45:38.746Z,18.17
2019-05-21T09:48:16.360Z,26.30
2019-05-21T09:50:54.164Z,19.05
2019-05-21T09:53:31.318Z,19.90
2019-05-21T09:56:26.543Z,24.40
2019-05-21T09:59:12.638Z,22.60
2019-05-21T10:01:51.393Z,20.55
2019-05-21T10:04:28.732Z,22.10
2019-05-21T10:07:06.047Z,24.18
2019-05-21T10:09:43.298Z,17.17
2019-05-21T10:12:21.121Z,23.73
2019-05-21T10:14:59.834Z,16.60
2019-05-21T10:17:37.752Z,24.57
2019-05-21T10:20:15.247Z,18.80
2019-05-21T10:22:53.463Z,14.55
2019-05-21T10:25:30.769Z,19.65
2019-05-21T10:28:08.674Z,13.22
2019-05-21T10:30:46.099Z,18.20
2019-05-21T10:33:23.481Z,13.15
2019-05-21T10:36:00.789Z,27.60
2019-05-21T10:38:38.656Z,11.73
2019-05-21T10:41:16.348Z,16.42
2019-05-21T10:44:01.372Z,11.15
2019-05-21T10:46:38.781Z,15.88
2019-05-21T10:49:16.311Z,20.43
2019-05-21T10:51:53.802Z,23.18
2019-05-21T10:54:31.577Z,24.12
2019-05-21T10:57:08.979Z,23.73
2019-05-21T10:59:46.796Z,26.05
2019-05-21T11:02:36.066Z,31.37
2019-05-21T11:05:29.002Z,20.43
2019-05-21T11:08:23.642Z,25.10
2019-05-21T11:10:46.496Z,22.77
2019-05-21T11:13:24.065Z,26.57
2019-05-21T11:16:01.581Z,28.87
2019-05-21T11:18:39.173Z,27.65
2019-05-21T11:21:17.417Z,33.02
2019-05-21T11:23:54.829Z,29.57
2019-05-21T11:26:32.541Z,36.17
2019-05-21T11:29:10.695Z,28.55
2019-05-21T11:31:57.048Z,27.87
2019-05-21T11:34:28.521Z,18.80
2019-05-21T11:37:05.928Z,22.58
2019-05-21T11:39:43.173Z,31.42
2019-05-21T11:42:20.455Z,16.23
2019-05-21T11:44:58.309Z,23.45
2019-05-21T11:47:35.607Z,36.23
2019-05-21T11:50:12.933Z,8.88
2019-05-21T11:52:50.893Z,9.85
2019-05-21T11:55:28.104Z,14.03
2019-05-21T11:58:05.663Z,17.57
2019-05-21T12:00:43.403Z,14.13
2019-05-21T12:03:21.146Z,27.10
2019-05-21T12:05:58.459Z,12.18
2019-05-21T12:08:36.608Z,7.95
2019-05-21T12:11:14.489Z,18.52
2019-05-21T12:13:51.637Z,20.92
2019-05-21T12:16:28.999Z,12.40
2019-05-21T12:19:08.240Z,15.18
2019-05-21T12:21:45.396Z,17.90
2019-05-21T12:24:22.826Z,12.23
2019-05-21T12:27:00.059Z,17.00
2019-05-21T12:29:43.577Z,14.85
2019-05-21T12:32:21.358Z,23.45
2019-05-21T12:34:59.043Z,20.88
2019-05-21T12:37:36.370Z,29.42
2019-05-21T12:40:14.336Z,19.07
2019-05-21T12:42:51.554Z,22.52
2019-05-21T12:45:29.033Z,20.25
2019-05-21T12:48:07.579Z,25.80
2019-05-21T12:50:44.803Z,22.48
2019-05-21T12:53:22.225Z,11.78
2019-05-21T12:55:59.651Z,28.20
2019-05-21T12:58:36.961Z,16.77
2019-05-21T13:01:14.528Z,19.05
2019-05-21T13:03:55.283Z,17.95
2019-05-21T13:06:30.896Z,18.77
2019-05-21T13:09:09.458Z,11.03
2019-05-21T13:11:58.256Z,26.05
2019-05-21T13:14:35.917Z,17.95
2019-05-21T13:17:14.677Z,18.17
2019-05-21T13:19:52.326Z,12.80
2019-05-21T13:22:29.564Z,6.50
2019-05-21T13:25:07.895Z,8.18
2019-05-21T13:27:45.582Z,11.38
2019-05-21T13:30:23.847Z,45.08
2019-05-21T13:33:01.034Z,16.93
2019-05-21T13:35:38.367Z,9.60
2019-05-21T13:38:15.664Z,15.68
2019-05-21T13:40:53.318Z,19.20
2019-05-21T13:43:36.251Z,11.43
2019-05-21T13:46:14.645Z,18.40
2019-05-21T13:48:51.970Z,10.82
2019-05-21T13:51:29.637Z,20.97
2019-05-21T13:54:06.926Z,13.65
2019-05-21T13:56:44.444Z,13.45
2019-05-21T13:59:22.564Z,13.03
2019-05-21T14:02:00.623Z,6.25
2019-05-21T14:04:38.440Z,16.25
2019-05-21T14:07:15.837Z,28.98
2019-05-21T14:10:12.589Z,17.90
2019-05-21T14:12:32.725Z,9.25
2019-05-21T14:15:10.290Z,15.48
2019-05-21T14:17:47.778Z,15.63
2019-05-21T14:20:25.935Z,10.85
2019-05-21T14:23:03.155Z,15.95
2019-05-21T14:25:40.900Z,15.05
2019-05-21T14:28:18.271Z,9.15
2019-05-21T14:30:55.615Z,20.15
2019-05-21T14:33:33.190Z,11.93
2019-05-21T14:36:10.764Z,15.55
2019-05-21T14:38:48.252Z,12.45
2019-05-21T14:41:25.527Z,18.80
2019-05-21T14:44:03.034Z,15.23
2019-05-21T14:46:52.039Z,16.95
2019-05-21T14:49:30.616Z,15.47
2019-05-21T14:52:09.525Z,12.60
2019-05-21T14:54:46.983Z,18.95
2019-05-21T14:57:24.610Z,18.35
2019-05-21T15:00:01.789Z,33.65
2019-05-21T15:02:41.102Z,13.32
2019-05-21T15:05:30.333Z,15.68
2019-05-21T15:08:07.770Z,28.00
2019-05-21T15:10:49.064Z,17.50
2019-05-21T15:13:30.153Z,12.58
2019-05-21T15:16:07.781Z,62.93
2019-05-21T15:18:45.323Z,27.25
2019-05-21T15:21:30.149Z,14.60
2019-05-21T15:24:08.182Z,11.30
2019-05-21T15:26:45.780Z,13.70
2019-05-21T15:29:23.112Z,14.60
2019-05-21T15:32:00.412Z,18.65
2019-05-21T15:34:37.706Z,17.48
2019-05-21T15:37:15.153Z,14.00
2019-05-21T15:39:52.773Z,18.02
2019-05-21T15:42:30.214Z,19.37
2019-05-21T15:45:08.009Z,13.98
2019-05-21T15:47:45.398Z,14.83
2019-05-21T15:50:23.092Z,15.53
2019-05-21T15:53:01.355Z,19.60
2019-05-21T15:55:38.723Z,13.30
2019-05-21T15:58:17.067Z,15.03
2019-05-21T16:00:55.443Z,17.17
2019-05-21T16:03:33.092Z,16.57
2019-05-21T16:06:10.889Z,18.35
2019-05-21T16:08:48.519Z,16.35
2019-05-21T16:11:29.025Z,17.42
2019-05-21T16:14:05.177Z,19.98
2019-05-21T16:16:42.406Z,12.98
2019-05-21T16:19:19.758Z,13.08
2019-05-21T16:21:58.978Z,14.87
2019-05-21T16:24:36.279Z,16.17
2019-05-21T16:27:13.638Z,14.80
2019-05-21T16:29:51.264Z,13.00
2019-05-21T16:32:28.451Z,11.75
2019-05-21T16:35:06.646Z,14.55
2019-05-21T16:37:44.882Z,12.88
2019-05-21T16:40:22.246Z,10.95
2019-05-21T16:43:00.064Z,16.20
2019-05-21T16:45:37.386Z,20.52
2019-05-21T16:48:14.818Z,22.13
2019-05-21T16:50:52.230Z,16.52
2019-05-21T16:53:29.439Z,17.10
2019-05-21T16:56:06.739Z,23.27
2019-05-21T16:58:44.174Z,15.00
2019-05-21T17:01:21.553Z,14.28
2019-05-21T17:04:00.190Z,17.77
2019-05-21T17:06:37.898Z,10.95
2019-05-21T17:09:15.615Z,13.38
2019-05-21T17:12:00.066Z,10.60
2019-05-21T17:14:32.677Z,12.40
2019-05-21T17:17:11.070Z,18.45
2019-05-21T17:19:49.636Z,13.88
2019-05-21T17:22:27.287Z,12.60
2019-05-21T17:25:05.278Z,20.55
2019-05-21T17:27:42.856Z,17.05
2019-05-21T17:30:20.345Z,17.57
2019-05-21T17:32:57.706Z,21.10
2019-05-21T17:35:35.899Z,22.37
2019-05-21T17:38:14.507Z,23.07
2019-05-21T17:40:51.837Z,17.27
2019-05-21T17:43:29.366Z,16.65
2019-05-21T17:46:06.718Z,13.98
2019-05-21T17:48:43.925Z,17.27
2019-05-21T17:51:21.321Z,14.40
2019-05-21T17:53:59.140Z,15.50
2019-05-21T17:56:37.438Z,17.95
2019-05-21T17:59:14.683Z,16.85
2019-05-21T18:01:53.109Z,13.58
2019-05-21T18:04:30.907Z,16.55
2019-05-21T18:07:10.514Z,13.88
2019-05-21T18:09:48.259Z,21.00
2019-05-21T18:12:32.038Z,20.32
2019-05-21T18:15:07.658Z,14.20
2019-05-21T18:17:46.231Z,15.80
2019-05-21T18:20:24.900Z,15.25
2019-05-21T18:23:02.695Z,23.92
2019-05-21T18:25:40.125Z,19.27
2019-05-21T18:28:21.489Z,17.07
2019-05-21T18:30:59.077Z,20.37
2019-05-21T18:33:36.515Z,16.87
2019-05-21T18:36:14.109Z,17.82
2019-05-21T18:38:51.515Z,13.15
2019-05-21T18:41:29.231Z,14.80
2019-05-21T18:44:07.337Z,18.17
2019-05-21T18:46:44.789Z,19.48
2019-05-21T18:49:22.297Z,18.30
2019-05-21T18:52:00.707Z,20.72
2019-05-21T18:54:38.259Z,20.65
2019-05-21T18:57:16.067Z,18.40
2019-05-21T18:59:54.019Z,19.30
2019-05-21T19:02:31.216Z,23.62
2019-05-21T19:05:08.863Z,20.52
2019-05-21T19:07:47.071Z,16.15
2019-05-21T19:10:25.687Z,15.60
2019-05-21T19:13:03.645Z,19.70
2019-05-21T19:15:41.925Z,17.10
2019-05-21T19:18:19.309Z,20.70
2019-05-21T19:20:56.747Z,22.70
2019-05-21T19:23:34.000Z,14.30
2019-05-21T19:26:11.897Z,15.53
2019-05-21T19:28:49.602Z,24.70
2019-05-21T19:31:28.583Z,29.92
2019-05-21T19:34:06.654Z,18.95
2019-05-21T19:36:44.065Z,22.55
2019-05-21T19:39:21.518Z,19.07
2019-05-21T19:41:58.969Z,15.35
2019-05-21T19:44:37.679Z,16.25
2019-05-21T19:47:15.090Z,18.25
2019-05-21T19:49:52.578Z,20.45
2019-05-21T19:52:36.031Z,20.40
2019-05-21T19:55:13.868Z,13.58
2019-05-21T19:57:51.337Z,23.62
2019-05-21T20:00:30.706Z,21.10
2019-05-21T20:03:09.216Z,18.50
2019-05-21T20:05:46.685Z,21.25
2019-05-21T20:08:24.690Z,17.82
2019-05-21T20:11:02.686Z,17.73
2019-05-21T20:13:40.329Z,19.70
2019-05-21T20:16:19.137Z,22.17
2019-05-21T20:18:56.385Z,17.37
2019-05-21T20:21:34.871Z,22.55
2019-05-21T20:24:12.680Z,16.85
2019-05-21T20:26:50.841Z,19.25
2019-05-21T20:29:27.989Z,18.35
2019-05-21T20:32:06.465Z,22.80
2019-05-21T20:34:45.251Z,19.25
2019-05-21T20:37:26.437Z,23.50
2019-05-21T20:40:06.286Z,29.02
2019-05-21T20:42:44.725Z,22.03
2019-05-21T20:45:22.407Z,20.88
2019-05-21T20:48:00.281Z,16.85
2019-05-21T20:50:38.404Z,18.25
2019-05-21T20:53:15.891Z,27.93
2019-05-21T20:55:53.352Z,16.57
2019-05-21T20:58:31.348Z,17.00
2019-05-21T21:01:08.633Z,25.32
2019-05-21T21:03:46.248Z,19.87
2019-05-21T21:06:34.816Z,18.65
2019-05-21T21:09:04.921Z,17.45
2019-05-21T21:11:43.833Z,20.65
2019-05-21T21:14:22.527Z,19.32
2019-05-21T21:17:00.229Z,19.07
2019-05-21T21:19:39.348Z,16.50
2019-05-21T21:22:16.687Z,22.73
2019-05-21T21:24:54.258Z,25.00
2019-05-21T21:27:32.817Z,17.67
2019-05-21T21:30:11.449Z,20.17
2019-05-21T21:32:50.447Z,19.67
2019-05-21T21:35:29.271Z,22.35
2019-05-21T21:38:08.316Z,17.07
2019-05-21T21:40:45.996Z,20.60
2019-05-21T21:43:23.977Z,17.62
2019-05-21T21:46:02.189Z,17.42
2019-05-21T21:48:40.346Z,25.35
2019-05-21T21:51:18.957Z,22.85
2019-05-21T21:53:56.689Z,17.17
2019-05-21T21:56:34.198Z,19.35
2019-05-21T21:59:11.569Z,21.30
2019-05-21T22:01:54.365Z,19.00
2019-05-21T22:04:35.753Z,18.48
2019-05-21T22:07:14.355Z,21.20
2019-05-21T22:09:52.224Z,19.05
2019-05-21T22:12:30.177Z,29.60
2019-05-21T22:15:08.192Z,19.37
2019-05-21T22:17:45.934Z,22.00
2019-05-21T22:20:23.166Z,21.12
2019-05-21T22:23:00.621Z,24.67
2019-05-21T22:25:37.918Z,22.67
2019-05-21T22:28:15.899Z,22.65
2019-05-21T22:30:53.777Z,28.02
2019-05-21T22:33:31.477Z,23.83
2019-05-21T22:36:10.165Z,27.70
2019-05-21T22:38:47.464Z,24.70
2019-05-21T22:41:24.780Z,24.25
2019-05-21T22:44:02.001Z,29.82
2019-05-21T22:46:39.585Z,28.92
2019-05-21T22:49:17.170Z,25.17
2019-05-21T22:51:54.675Z,24.32
2019-05-21T22:54:31.890Z,23.95
2019-05-21T22:57:09.414Z,26.55
2019-05-21T22:59:47.315Z,30.02
2019-05-21T23:02:28.784Z,28.67
2019-05-21T23:05:07.196Z,24.40
2019-05-21T23:07:46.772Z,27.07
2019-05-21T23:10:25.166Z,26.00
2019-05-21T23:13:02.824Z,27.25
2019-05-21T23:15:41.760Z,28.60
2019-05-21T23:18:29.785Z,29.32
2019-05-21T23:21:20.676Z,26.23
2019-05-21T23:23:59.130Z,26.57
2019-05-21T23:26:36.545Z,28.38
2019-05-21T23:29:13.814Z,23.15
2019-05-21T23:31:51.097Z,33.63
2019-05-21T23:34:28.925Z,22.98
2019-05-21T23:37:08.476Z,28.42
2019-05-21T23:39:48.290Z,26.52
2019-05-21T23:42:30.154Z,26.23
2019-05-21T23:45:05.839Z,26.80
2019-05-21T23:47:43.279Z,26.60
2019-05-21T23:50:20.831Z,25.25
2019-05-21T23:52:58.148Z,26.97
2019-05-21T23:55:35.581Z,29.10
2019-05-21T23:58:15.298Z,25.15
